Thursday, August 25, 2016, 9:22 PM EDT

KDYL, Doylestown Airport

Location: Doylestown, PA, United States Lat: 40.333
Local Time: 9:22 PM EDT ( 1:22 GMT) Lon: -75.117
Time Zone: US/Eastern Elev: 393 ft

Show me the last for .
Show Decoded

2016-08-25 20:54 METAR KDYL 260054Z AUTO 18003KT 10SM CLR 26/22 A3003 RMK AO2 SLP163 T02560222 =
2016-08-25 19:54 METAR KDYL 252354Z AUTO 19003KT 10SM BKN060 27/22 A3002 RMK AO2 SLP159 60000
                 T02720217 10300 20272 55000 =
2016-08-25 18:54 METAR KDYL 252254Z AUTO 20007KT 10SM OVC065 28/22 A3001 RMK AO2 SLP158 T02830217
                 =
2016-08-25 17:54 METAR KDYL 252154Z AUTO 22008KT 10SM BKN037 29/22 A3001 RMK AO2 SLP158 T02890217
                 =
2016-08-25 16:54 METAR KDYL 252054Z AUTO 21008KT 10SM SCT032 BKN050 29/22 A3002 RMK AO2 RAE1957
                 SLP159 P0000 60000 T02890222 56009 =
2016-08-25 15:54 METAR KDYL 251954Z AUTO 20005KT 10SM -RA BKN033 OVC043 28/22 A3002 RMK AO2 RAB46
                 SLP160 P0000 T02830217 =
2016-08-25 14:54 METAR KDYL 251854Z AUTO 22010KT 10SM BKN035 BKN047 OVC070 29/21 A3003 RMK AO2
                 SLP163 T02890211 =
2016-08-25 13:54 METAR KDYL 251754Z AUTO 21009KT 160V230 10SM FEW035 SCT050 BKN090 29/21 A3005
                 RMK AO2 SLP168 T02940211 10300 20211 56018 =
2016-08-25 12:54 METAR KDYL 251654Z AUTO 18007KT 150V220 10SM SCT050 29/22 A3006 RMK AO2 SLP174
                 T02890217 =
2016-08-25 11:54 METAR KDYL 251554Z AUTO 17007KT 140V210 10SM CLR 27/21 A3008 RMK AO2 SLP179
                 T02720206 =
2016-08-25 10:54 METAR KDYL 251454Z AUTO 20006KT 10SM CLR 27/20 A3010 RMK AO2 SLP186 T02670200
                 56011 =
2016-08-25 09:54 METAR KDYL 251354Z AUTO VRB06KT 10SM CLR 25/19 A3011 RMK AO2 SLP190 T02500194 =
2016-08-25 08:54 METAR KDYL 251254Z AUTO 20005KT 10SM CLR 23/19 A3012 RMK AO2 SLP192 T02330189 =
2016-08-25 07:54 METAR KDYL 251154Z AUTO 21004KT 10SM CLR 21/18 A3013 RMK AO2 SLP198 T02110183
                 10211 20183 53002 =
2016-08-25 06:54 METAR KDYL 251054Z AUTO VRB03KT 10SM CLR 19/18 A3013 RMK AO2 SLP197 T01940178 =
2016-08-25 05:54 METAR KDYL 250954Z AUTO 15003KT 10SM CLR 18/17 A3013 RMK AO2 SLP196 T01830172 =
2016-08-25 04:54 METAR KDYL 250854Z AUTO 19003KT 10SM CLR 19/18 A3013 RMK AO2 SLP196 T01940178
                 56010 =
2016-08-25 03:54 METAR KDYL 250754Z AUTO 18004KT 10SM CLR 19/18 A3013 RMK AO2 SLP197 T01940178 =
2016-08-25 02:54 METAR KDYL 250654Z AUTO 00000KT 10SM CLR 21/18 A3014 RMK AO2 SLP202 T02060178 =
2016-08-25 01:54 METAR KDYL 250554Z AUTO 19003KT 10SM CLR 21/17 A3016 RMK AO2 SLP206 T02060172
                 10250 20206 58012 =
2016-08-25 00:54 METAR KDYL 250454Z AUTO VRB04KT 10SM CLR 21/17 A3017 RMK AO2 SLP209 T02110172
                 403000161 =
2016-08-24 23:54 METAR KDYL 250354Z AUTO 19004KT 10SM CLR 22/17 A3019 RMK AO2 SLP216 T02170167 =
2016-08-24 22:54 METAR KDYL 250254Z AUTO 20004KT 10SM CLR 23/17 A3019 RMK AO2 SLP218 T02280167
                 50008 =
2016-08-24 21:54 METAR KDYL 250154Z AUTO 21004KT 10SM CLR 24/18 A3019 RMK AO2 SLP219 T02390178 =

Support USWX by starting your Amazon purchase here.